• Join FlightAware (Why Join?)
  • Login
  • US Flag 
12:55PM EDT


 

Airport Tracker/Info


-or-


 

Live Flight TrackerFlight Track Log ✈ WIG1042 ✈ 05-Jul-2013 ✈ KMHT - KBTV

Flight Track Log - Related Links

Times and Time Zones

All times are in EDT time to prevent confusion due to time zone crossing. See the WIG1042 flight status page for this flight to view local times or setup timezone preferences in your user account.

Time Position Orientation Groundspeed Altitude Reporting Facility
EDT Latitude Longitude Course Direction KTS MPH feet Rate Location/Type
06:46AM 42.9167 -71.4667 304° West 122 140 900  Level KA90
06:47AM 42.9333 -71.5000 304° West 144 166 1,600 540 Climbing KA90
06:48AM 42.9667 -71.5167 340° North 156 180 2,000 660 Climbing KA90
06:49AM 43.0000 -71.5500 324° Northwest 148 170 2,900 720 Climbing KA90
06:50AM 43.0333 -71.5833 324° Northwest 150 173 3,500 660 Climbing KA90
06:51AM 43.0667 -71.6167 324° Northwest 151 174 4,300 780 Climbing KA90
06:52AM 43.1167 -71.6500 334° Northwest 151 174 5,200 720 Climbing KA90
06:53AM 43.1500 -71.7000 312° West 154 177 5,900 660 Climbing KA90
06:54AM 43.1833 -71.7333 324° Northwest 158 182 6,600 660 Climbing KA90
06:54AM 43.2028 -71.7622 313° West 167 192 7,000 600 Climbing Boston Center
06:55AM 43.2281 -71.7906 321° Northwest 167 192 7,600 480 Climbing Boston Center
06:56AM 43.2700 -71.8356 322° Northwest 175 201 8,000 180 Climbing Boston Center
06:57AM 43.3078 -71.8753 323° Northwest 185 213 8,000  Level Boston Center
06:58AM 43.3517 -71.9261 320° Northwest 190 219 8,000  Level Boston Center
06:59AM 43.3914 -71.9686 322° Northwest 190 219 8,000  Level Boston Center
07:00AM 43.4417 -72.0197 324° Northwest 195 224 8,000  Level Boston Center
07:01AM 43.4897 -72.0567 331° Northwest 195 224 8,000  Level Boston Center
07:02AM 43.5294 -72.1108 315° West 200 230 8,000  Level Boston Center
07:03AM 43.5733 -72.1592 321° Northwest 200 230 8,000  Level Boston Center
07:04AM 43.6172 -72.2050 323° Northwest 200 230 8,000  Level Boston Center
07:05AM 43.6589 -72.2536 320° Northwest 200 230 8,000  Level Boston Center
07:06AM 43.6986 -72.2964 322° Northwest 200 230 8,000  Level Boston Center
07:07AM 43.7444 -72.3422 324° Northwest 200 230 8,000  Level Boston Center
07:08AM 43.7842 -72.3969 315° West 200 230 8,000  Level Boston Center
07:09AM 43.8258 -72.4400 323° Northwest 195 224 8,000  Level Boston Center
07:10AM 43.8697 -72.4861 323° Northwest 195 224 8,000 -300 Level Boston Center
07:11AM 43.9175 -72.5353 323° Northwest 195 224 7,500 -480 Descending Boston Center
07:12AM 43.9550 -72.5669 329° Northwest 201 231 7,100 -240 Descending Boston Center
07:13AM 44.0050 -72.6278 319° Northwest 206 237 7,100 -60 Level Boston Center
07:14AM 44.0464 -72.6742 321° Northwest 201 231 7,000 -60 Descending Boston Center
07:15AM 44.0944 -72.7147 329° Northwest 201 231 7,000  Level Boston Center
07:16AM 44.1525 -72.7439 340° North 196 226 7,000 -60 Level Boston Center
07:17AM 44.2047 -72.7731 338° Northwest 196 226 6,900 -60 Descending Boston Center
07:18AM 44.2544 -72.8081 333° Northwest 196 226 6,900 -360 Level Boston Center
07:19AM 44.3003 -72.8550 324° Northwest 203 234 6,200 -720 Descending Boston Center
07:20AM 44.3478 -72.9075 322° Northwest 216 249 5,500 -420 Descending Boston Center
07:22AM 44.3894 -72.9572 320° Northwest 210 242 5,300 -660 Descending Boston Center
07:23AM 44.4453 -73.0042 329° Northwest 203 234 4,100 -960 Descending Boston Center
07:24AM 44.4953 -73.0453 330° Northwest 213 245 3,400 -1,200 Descending Boston Center
07:25AM 44.5031 -73.1125 279° West 176 203 1,700 -1,260 Descending Boston Center
07:26AM 44.4986 -73.1706 264° West 159 183 900 -720 Descending Boston Center
07:27AM 44.4736 -73.1586 161° South 90 104 300 -600 Descending Boston Center
07:29AM 44.4667 -73.1500 144° Southeast  Level FlightAware Approximate
07:36AM 44.4719 -73.1533 144° Southeast  Level Estimated